sensor_id;sensor_type;location;lat;lon;timestamp;P1;durP1;ratioP1;P2;durP2;ratioP2
25111;SDS011;13092;51.996;4.458;2023-08-20T00:00:09;59.80;;;55.78;;
25111;SDS011;13092;51.996;4.458;2023-08-20T00:02:39;60.60;;;56.05;;
25111;SDS011;13092;51.996;4.458;2023-08-20T00:05:10;58.63;;;54.60;;
25111;SDS011;13092;51.996;4.458;2023-08-20T00:07:39;57.60;;;53.33;;
25111;SDS011;13092;51.996;4.458;2023-08-20T00:10:08;56.47;;;52.78;;
25111;SDS011;13092;51.996;4.458;2023-08-20T00:12:36;57.85;;;53.78;;
25111;SDS011;13092;51.996;4.458;2023-08-20T00:15:07;59.47;;;54.88;;
25111;SDS011;13092;51.996;4.458;2023-08-20T00:17:37;59.70;;;55.30;;
25111;SDS011;13092;51.996;4.458;2023-08-20T00:20:08;58.40;;;54.10;;
25111;SDS011;13092;51.996;4.458;2023-08-20T00:22:39;57.10;;;52.72;;
25111;SDS011;13092;51.996;4.458;2023-08-20T00:25:11;61.17;;;55.88;;
25111;SDS011;13092;51.996;4.458;2023-08-20T00:27:41;61.40;;;56.30;;
25111;SDS011;13092;51.996;4.458;2023-08-20T00:30:11;60.50;;;55.40;;
25111;SDS011;13092;51.996;4.458;2023-08-20T00:32:42;59.05;;;54.40;;
25111;SDS011;13092;51.996;4.458;2023-08-20T00:35:11;59.60;;;54.83;;
25111;SDS011;13092;51.996;4.458;2023-08-20T00:37:39;59.00;;;54.28;;
25111;SDS011;13092;51.996;4.458;2023-08-20T00:40:08;58.53;;;53.80;;
25111;SDS011;13092;51.996;4.458;2023-08-20T00:42:37;59.53;;;54.63;;
25111;SDS011;13092;51.996;4.458;2023-08-20T00:45:05;58.33;;;53.63;;
25111;SDS011;13092;51.996;4.458;2023-08-20T00:47:35;58.97;;;54.08;;
25111;SDS011;13092;51.996;4.458;2023-08-20T00:50:07;59.65;;;54.78;;
25111;SDS011;13092;51.996;4.458;2023-08-20T00:52:37;63.40;;;58.00;;
25111;SDS011;13092;51.996;4.458;2023-08-20T00:55:06;61.80;;;56.40;;
25111;SDS011;13092;51.996;4.458;2023-08-20T00:57:36;62.28;;;56.90;;
25111;SDS011;13092;51.996;4.458;2023-08-20T01:00:06;61.72;;;56.00;;
25111;SDS011;13092;51.996;4.458;2023-08-20T01:02:39;58.75;;;53.50;;
25111;SDS011;13092;51.996;4.458;2023-08-20T01:05:11;59.78;;;54.38;;
25111;SDS011;13092;51.996;4.458;2023-08-20T01:07:43;60.30;;;55.00;;
25111;SDS011;13092;51.996;4.458;2023-08-20T01:10:25;56.83;;;51.92;;
25111;SDS011;13092;51.996;4.458;2023-08-20T01:13:01;59.15;;;54.00;;
25111;SDS011;13092;51.996;4.458;2023-08-20T01:15:30;60.20;;;54.90;;
25111;SDS011;13092;51.996;4.458;2023-08-20T01:18:00;60.28;;;54.80;;
25111;SDS011;13092;51.996;4.458;2023-08-20T01:20:30;60.88;;;55.45;;
25111;SDS011;13092;51.996;4.458;2023-08-20T01:23:16;60.22;;;54.88;;
25111;SDS011;13092;51.996;4.458;2023-08-20T01:26:10;59.17;;;54.05;;
25111;SDS011;13092;51.996;4.458;2023-08-20T01:28:54;61.03;;;55.78;;
25111;SDS011;13092;51.996;4.458;2023-08-20T01:31:23;59.00;;;54.03;;
25111;SDS011;13092;51.996;4.458;2023-08-20T01:33:53;59.83;;;54.47;;
25111;SDS011;13092;51.996;4.458;2023-08-20T01:36:24;59.28;;;54.13;;
25111;SDS011;13092;51.996;4.458;2023-08-20T01:38:52;63.28;;;57.40;;
25111;SDS011;13092;51.996;4.458;2023-08-20T01:41:20;61.03;;;55.63;;
25111;SDS011;13092;51.996;4.458;2023-08-20T01:43:49;62.17;;;56.78;;
25111;SDS011;13092;51.996;4.458;2023-08-20T01:46:18;64.32;;;58.63;;
25111;SDS011;13092;51.996;4.458;2023-08-20T01:48:47;62.40;;;56.67;;
25111;SDS011;13092;51.996;4.458;2023-08-20T01:51:15;64.13;;;58.20;;
25111;SDS011;13092;51.996;4.458;2023-08-20T01:53:43;62.92;;;57.53;;
25111;SDS011;13092;51.996;4.458;2023-08-20T01:56:11;64.43;;;58.53;;
25111;SDS011;13092;51.996;4.458;2023-08-20T01:58:40;61.60;;;56.17;;
25111;SDS011;13092;51.996;4.458;2023-08-20T02:01:08;62.45;;;56.90;;
25111;SDS011;13092;51.996;4.458;2023-08-20T02:03:38;60.40;;;54.95;;
25111;SDS011;13092;51.996;4.458;2023-08-20T02:06:07;60.47;;;54.83;;
25111;SDS011;13092;51.996;4.458;2023-08-20T02:08:35;60.50;;;55.10;;
25111;SDS011;13092;51.996;4.458;2023-08-20T02:11:03;62.10;;;56.53;;
25111;SDS011;13092;51.996;4.458;2023-08-20T02:13:32;60.28;;;54.70;;
25111;SDS011;13092;51.996;4.458;2023-08-20T02:16:00;58.90;;;53.67;;
25111;SDS011;13092;51.996;4.458;2023-08-20T02:18:30;59.35;;;53.90;;
25111;SDS011;13092;51.996;4.458;2023-08-20T02:21:00;58.17;;;52.55;;
25111;SDS011;13092;51.996;4.458;2023-08-20T02:23:29;59.00;;;53.35;;
25111;SDS011;13092;51.996;4.458;2023-08-20T02:25:57;56.42;;;51.28;;
25111;SDS011;13092;51.996;4.458;2023-08-20T02:28:27;57.25;;;51.85;;
25111;SDS011;13092;51.996;4.458;2023-08-20T02:30:55;56.78;;;51.70;;
25111;SDS011;13092;51.996;4.458;2023-08-20T02:33:26;58.10;;;52.47;;
25111;SDS011;13092;51.996;4.458;2023-08-20T02:35:55;57.85;;;52.50;;
25111;SDS011;13092;51.996;4.458;2023-08-20T02:38:29;56.05;;;50.95;;
25111;SDS011;13092;51.996;4.458;2023-08-20T02:40:58;55.28;;;50.25;;
25111;SDS011;13092;51.996;4.458;2023-08-20T02:43:26;55.97;;;50.42;;
25111;SDS011;13092;51.996;4.458;2023-08-20T02:45:54;56.17;;;50.85;;
25111;SDS011;13092;51.996;4.458;2023-08-20T02:48:23;54.40;;;49.45;;
25111;SDS011;13092;51.996;4.458;2023-08-20T02:50:53;54.60;;;49.70;;
25111;SDS011;13092;51.996;4.458;2023-08-20T02:53:21;55.45;;;50.08;;
25111;SDS011;13092;51.996;4.458;2023-08-20T02:55:51;53.03;;;48.03;;
25111;SDS011;13092;51.996;4.458;2023-08-20T02:58:19;53.80;;;48.83;;
25111;SDS011;13092;51.996;4.458;2023-08-20T03:00:48;54.08;;;49.17;;
25111;SDS011;13092;51.996;4.458;2023-08-20T03:03:16;53.53;;;48.70;;
25111;SDS011;13092;51.996;4.458;2023-08-20T03:05:44;53.65;;;48.80;;
25111;SDS011;13092;51.996;4.458;2023-08-20T03:08:13;53.60;;;48.70;;
25111;SDS011;13092;51.996;4.458;2023-08-20T03:10:41;54.35;;;49.15;;
25111;SDS011;13092;51.996;4.458;2023-08-20T03:13:11;53.95;;;48.92;;
25111;SDS011;13092;51.996;4.458;2023-08-20T03:15:40;54.45;;;49.47;;
25111;SDS011;13092;51.996;4.458;2023-08-20T03:18:08;55.40;;;50.28;;
25111;SDS011;13092;51.996;4.458;2023-08-20T03:20:37;55.03;;;49.97;;
25111;SDS011;13092;51.996;4.458;2023-08-20T03:23:05;54.58;;;49.60;;
25111;SDS011;13092;51.996;4.458;2023-08-20T03:25:33;54.72;;;49.78;;
25111;SDS011;13092;51.996;4.458;2023-08-20T03:28:01;55.20;;;50.22;;
25111;SDS011;13092;51.996;4.458;2023-08-20T03:30:31;54.58;;;49.65;;
25111;SDS011;13092;51.996;4.458;2023-08-20T03:33:00;54.38;;;49.38;;
25111;SDS011;13092;51.996;4.458;2023-08-20T03:35:28;54.75;;;49.53;;
25111;SDS011;13092;51.996;4.458;2023-08-20T03:37:57;55.85;;;50.88;;
25111;SDS011;13092;51.996;4.458;2023-08-20T03:40:25;53.88;;;48.95;;
25111;SDS011;13092;51.996;4.458;2023-08-20T03:42:55;55.03;;;50.00;;
25111;SDS011;13092;51.996;4.458;2023-08-20T03:45:23;55.53;;;50.28;;
25111;SDS011;13092;51.996;4.458;2023-08-20T03:47:52;53.95;;;49.25;;
25111;SDS011;13092;51.996;4.458;2023-08-20T03:50:21;53.83;;;48.92;;
25111;SDS011;13092;51.996;4.458;2023-08-20T03:52:49;55.08;;;50.05;;
25111;SDS011;13092;51.996;4.458;2023-08-20T03:55:17;54.92;;;50.03;;
25111;SDS011;13092;51.996;4.458;2023-08-20T03:57:45;53.17;;;48.38;;
25111;SDS011;13092;51.996;4.458;2023-08-20T04:00:14;51.55;;;46.95;;
25111;SDS011;13092;51.996;4.458;2023-08-20T04:02:42;52.97;;;47.88;;
25111;SDS011;13092;51.996;4.458;2023-08-20T04:05:12;52.75;;;47.80;;
25111;SDS011;13092;51.996;4.458;2023-08-20T04:07:40;54.15;;;48.92;;
25111;SDS011;13092;51.996;4.458;2023-08-20T04:10:09;51.72;;;46.83;;
25111;SDS011;13092;51.996;4.458;2023-08-20T04:12:37;50.95;;;46.15;;
25111;SDS011;13092;51.996;4.458;2023-08-20T04:15:05;51.03;;;46.70;;
25111;SDS011;13092;51.996;4.458;2023-08-20T04:17:34;50.72;;;46.17;;
25111;SDS011;13092;51.996;4.458;2023-08-20T04:20:03;51.58;;;46.88;;
25111;SDS011;13092;51.996;4.458;2023-08-20T04:22:37;51.15;;;46.65;;
25111;SDS011;13092;51.996;4.458;2023-08-20T04:25:07;52.60;;;47.78;;
25111;SDS011;13092;51.996;4.458;2023-08-20T04:27:35;51.42;;;46.97;;
25111;SDS011;13092;51.996;4.458;2023-08-20T04:30:04;51.70;;;47.17;;
25111;SDS011;13092;51.996;4.458;2023-08-20T04:32:34;52.35;;;47.55;;
25111;SDS011;13092;51.996;4.458;2023-08-20T04:35:02;50.63;;;46.22;;
25111;SDS011;13092;51.996;4.458;2023-08-20T04:37:31;52.53;;;48.20;;
25111;SDS011;13092;51.996;4.458;2023-08-20T04:40:01;51.95;;;47.28;;
25111;SDS011;13092;51.996;4.458;2023-08-20T04:42:31;51.72;;;47.22;;
25111;SDS011;13092;51.996;4.458;2023-08-20T04:44:59;51.40;;;46.70;;
25111;SDS011;13092;51.996;4.458;2023-08-20T04:47:28;49.65;;;45.33;;
25111;SDS011;13092;51.996;4.458;2023-08-20T04:49:56;51.17;;;46.47;;
25111;SDS011;13092;51.996;4.458;2023-08-20T04:52:24;49.63;;;45.22;;
25111;SDS011;13092;51.996;4.458;2023-08-20T04:54:53;49.70;;;45.15;;
25111;SDS011;13092;51.996;4.458;2023-08-20T04:57:23;49.17;;;44.92;;
25111;SDS011;13092;51.996;4.458;2023-08-20T04:59:51;49.47;;;44.97;;
25111;SDS011;13092;51.996;4.458;2023-08-20T05:02:20;48.00;;;43.65;;
25111;SDS011;13092;51.996;4.458;2023-08-20T05:04:48;48.97;;;44.45;;
25111;SDS011;13092;51.996;4.458;2023-08-20T05:07:17;46.97;;;42.92;;
25111;SDS011;13092;51.996;4.458;2023-08-20T05:09:46;48.28;;;44.00;;
25111;SDS011;13092;51.996;4.458;2023-08-20T05:12:15;47.65;;;43.38;;
25111;SDS011;13092;51.996;4.458;2023-08-20T05:14:45;46.47;;;42.38;;
25111;SDS011;13092;51.996;4.458;2023-08-20T05:17:14;46.28;;;42.03;;
25111;SDS011;13092;51.996;4.458;2023-08-20T05:19:42;47.30;;;43.10;;
25111;SDS011;13092;51.996;4.458;2023-08-20T05:22:10;46.58;;;42.28;;
25111;SDS011;13092;51.996;4.458;2023-08-20T05:24:40;47.45;;;43.20;;
25111;SDS011;13092;51.996;4.458;2023-08-20T05:27:10;47.50;;;43.22;;
25111;SDS011;13092;51.996;4.458;2023-08-20T05:29:43;47.65;;;43.42;;
25111;SDS011;13092;51.996;4.458;2023-08-20T05:32:13;46.85;;;42.72;;
25111;SDS011;13092;51.996;4.458;2023-08-20T05:34:42;45.78;;;41.78;;
25111;SDS011;13092;51.996;4.458;2023-08-20T05:37:11;45.60;;;41.53;;
25111;SDS011;13092;51.996;4.458;2023-08-20T05:39:40;45.28;;;41.38;;
25111;SDS011;13092;51.996;4.458;2023-08-20T05:42:10;45.00;;;41.30;;
25111;SDS011;13092;51.996;4.458;2023-08-20T05:44:38;45.38;;;41.33;;
25111;SDS011;13092;51.996;4.458;2023-08-20T05:47:08;44.88;;;41.08;;
25111;SDS011;13092;51.996;4.458;2023-08-20T05:49:36;45.45;;;41.45;;
25111;SDS011;13092;51.996;4.458;2023-08-20T05:52:04;44.97;;;41.15;;
25111;SDS011;13092;51.996;4.458;2023-08-20T05:54:35;44.28;;;40.58;;
25111;SDS011;13092;51.996;4.458;2023-08-20T05:57:04;42.95;;;39.22;;
25111;SDS011;13092;51.996;4.458;2023-08-20T05:59:33;43.70;;;40.10;;
25111;SDS011;13092;51.996;4.458;2023-08-20T06:12:02;44.58;;;40.63;;
25111;SDS011;13092;51.996;4.458;2023-08-20T07:34:05;42.38;;;38.47;;
25111;SDS011;13092;51.996;4.458;2023-08-20T08:13:30;42.97;;;39.20;;
25111;SDS011;13092;51.996;4.458;2023-08-20T08:16:51;43.95;;;39.85;;
25111;SDS011;13092;51.996;4.458;2023-08-20T08:26:16;42.00;;;38.63;;
25111;SDS011;13092;51.996;4.458;2023-08-20T13:44:10;3.13;;;1.33;;
25111;SDS011;13092;51.996;4.458;2023-08-20T15:45:15;7.63;;;1.77;;
25111;SDS011;13092;51.996;4.458;2023-08-20T16:37:18;5.95;;;2.10;;
25111;SDS011;13092;51.996;4.458;2023-08-20T16:47:51;6.47;;;1.60;;
25111;SDS011;13092;51.996;4.458;2023-08-20T18:52:08;6.85;;;1.88;;
25111;SDS011;13092;51.996;4.458;2023-08-20T20:32:52;19.08;;;17.67;;
25111;SDS011;13092;51.996;4.458;2023-08-20T21:11:16;20.73;;;19.10;;
25111;SDS011;13092;51.996;4.458;2023-08-20T21:15:09;45.22;;;42.33;;
25111;SDS011;13092;51.996;4.458;2023-08-20T21:26:13;58.58;;;55.05;;
25111;SDS011;13092;51.996;4.458;2023-08-20T21:30:06;62.30;;;58.53;;
25111;SDS011;13092;51.996;4.458;2023-08-20T21:33:08;62.08;;;58.17;;
